Time;durP1;ratioP1;P1;durP2;ratioP2;P2;SDS_P1;SDS_P2;PMS_P1;PMS_P2;Temp;Humidity;BMP_temperature;BMP_pressure;BME280_temperature;BME280_humidity;BME280_pressure;Samples;Min_cycle;Max_cycle;Signal;HPM_P1;HPM_P2
2022/08/26 00:00:12;;;;;;;35.10;27.73;;;21.80;99.90;;;;;;5105469;27;20074;-75
2022/08/26 00:02:38;;;;;;;32.17;25.00;;;21.60;99.90;;;;;;5133312;27;20126;-75
2022/08/26 00:05:04;;;;;;;31.77;24.90;;;21.70;99.90;;;;;;5132171;27;20055;-75
2022/08/26 00:07:30;;;;;;;35.28;24.92;;;21.70;99.90;;;;;;5115594;27;20129;-75
2022/08/26 00:09:56;;;;;;;35.13;26.58;;;21.60;99.90;;;;;;5134063;27;20417;-74
2022/08/26 00:12:21;;;;;;;33.30;24.45;;;21.60;99.90;;;;;;5134053;27;20046;-76
2022/08/26 00:14:47;;;;;;;30.63;26.10;;;21.60;99.90;;;;;;5132883;27;20051;-78
2022/08/26 00:17:13;;;;;;;32.50;25.15;;;21.60;99.90;;;;;;5135542;27;20731;-79
2022/08/26 00:19:39;;;;;;;34.90;26.40;;;21.60;99.90;;;;;;5115367;27;20042;-74
2022/08/26 00:22:05;;;;;;;33.53;27.05;;;21.70;99.90;;;;;;5134081;27;20039;-74
2022/08/26 00:24:31;;;;;;;40.50;27.23;;;;;;;;;;5110350;27;20831;-74
2022/08/26 00:26:57;;;;;;;35.42;26.70;;;21.50;99.90;;;;;;5127364;27;20058;-75
2022/08/26 00:29:23;;;;;;;32.17;24.92;;;;;;;;;;5109624;27;20042;-75
2022/08/26 00:31:49;;;;;;;30.15;23.20;;;;;;;;;;5128104;27;20034;-75
2022/08/26 00:34:15;;;;;;;31.40;26.08;;;;;;;;;;5127108;27;20067;-75
2022/08/26 00:36:42;;;;;;;36.40;27.63;;;21.30;99.90;;;;;;5128561;27;20046;-74
2022/08/26 00:39:08;;;;;;;28.73;23.58;;;21.30;99.90;;;;;;5126723;27;20046;-75
2022/08/26 00:41:37;;;;;;;37.78;27.05;;;21.30;99.90;;;;;;5132873;27;20049;-75
2022/08/26 00:44:03;;;;;;;34.65;25.98;;;20.90;99.90;;;;;;5130358;27;20584;-75
2022/08/26 00:46:32;;;;;;;34.95;25.95;;;21.20;99.90;;;;;;5105402;27;20350;-75
2022/08/26 00:49:15;;;;;;;37.03;25.25;;;21.20;99.90;;;;;;5129484;27;20050;-75
2022/08/26 00:51:48;;;;;;;33.03;24.83;;;21.20;99.90;;;;;;5129178;27;20092;-75
2022/08/26 00:54:15;;;;;;;36.38;25.48;;;23.20;99.90;;;;;;5109256;27;20117;-75
2022/08/26 00:56:49;;;;;;;33.33;25.25;;;21.00;99.90;;;;;;5131898;27;20046;-75
2022/08/26 00:59:16;;;;;;;33.67;25.75;;;21.00;99.90;;;;;;5130008;27;20050;-74
2022/08/26 01:01:43;;;;;;;32.17;25.17;;;21.00;99.90;;;;;;5129974;27;20038;-74
2022/08/26 01:04:10;;;;;;;36.20;24.60;;;21.00;99.90;;;;;;5128238;27;20046;-75
2022/08/26 01:06:36;;;;;;;31.77;24.50;;;21.00;99.90;;;;;;5129324;27;20145;-74
2022/08/26 01:09:03;;;;;;;36.53;23.15;;;21.00;99.90;;;;;;5130873;27;20046;-74
2022/08/26 01:11:30;;;;;;;32.42;23.65;;;21.00;99.90;;;;;;5130449;27;20038;-75
2022/08/26 01:13:59;;;;;;;28.33;23.13;;;21.00;99.90;;;;;;5128909;27;20070;-74
2022/08/26 01:16:24;;;;;;;27.38;21.10;;;21.00;99.90;;;;;;5129516;27;20058;-74
2022/08/26 01:18:54;;;;;;;29.83;20.83;;;20.90;99.90;;;;;;5128369;27;20081;-76
2022/08/26 01:21:45;;;;;;;26.17;20.52;;;21.50;99.90;;;;;;5111874;27;20106;-75
2022/08/26 01:24:11;;;;;;;27.67;19.45;;;21.00;99.90;;;;;;5130502;27;20039;-76
2022/08/26 01:26:40;;;;;;;25.77;19.40;;;20.90;99.90;;;;;;5128483;27;20061;-75
2022/08/26 01:29:11;;;;;;;26.92;20.35;;;20.90;99.90;;;;;;5131360;27;20103;-75
2022/08/26 01:31:47;;;;;;;23.98;17.08;;;20.90;99.90;;;;;;5129242;27;20065;-75
2022/08/26 01:34:21;;;;;;;25.77;19.30;;;20.90;99.90;;;;;;5128592;27;20045;-75
2022/08/26 01:36:49;;;;;;;32.53;21.73;;;20.80;99.90;;;;;;5084725;27;20043;-75
2022/08/26 01:39:16;;;;;;;32.67;18.25;;;20.80;99.90;;;;;;5126289;27;20062;-74
2022/08/26 01:41:43;;;;;;;29.52;20.50;;;20.80;99.90;;;;;;5130239;27;20053;-75
2022/08/26 01:44:15;;;;;;;29.30;20.60;;;20.80;99.90;;;;;;5108891;27;20724;-75
2022/08/26 01:46:43;;;;;;;32.00;20.02;;;20.80;99.90;;;;;;5127352;27;20145;-75
2022/08/26 01:49:09;;;;;;;30.73;20.75;;;20.80;99.90;;;;;;5130824;27;20045;-75
2022/08/26 01:51:37;;;;;;;35.53;20.48;;;20.80;99.90;;;;;;5130816;27;20066;-74
2022/08/26 01:54:07;;;;;;;33.47;20.15;;;20.90;99.90;;;;;;5127294;27;20095;-75
2022/08/26 01:56:34;;;;;;;30.13;21.77;;;20.90;99.90;;;;;;5131818;27;20038;-75
2022/08/26 01:59:03;;;;;;;32.15;19.98;;;20.90;99.90;;;;;;5134152;27;20274;-75
2022/08/26 02:01:29;;;;;;;33.80;20.35;;;20.90;99.90;;;;;;5131898;27;20043;-75
2022/08/26 02:04:15;;;;;;;27.17;20.40;;;20.80;99.90;;;;;;5115904;27;20046;-75
2022/08/26 02:06:41;;;;;;;28.52;20.90;;;20.80;99.90;;;;;;5133675;27;20138;-76
2022/08/26 02:09:07;;;;;;;30.10;19.95;;;20.80;99.90;;;;;;5134216;27;20046;-75
2022/08/26 02:11:33;;;;;;;30.85;19.73;;;20.80;99.90;;;;;;5125715;27;20114;-75
2022/08/26 02:14:06;;;;;;;30.10;19.30;;;20.80;99.90;;;;;;5133134;27;20126;-74
2022/08/26 02:16:35;;;;;;;;;;;20.80;99.90;;;;;;5132266;27;20089;-75
2022/08/26 02:19:01;;;;;;;29.92;18.52;;;20.80;99.90;;;;;;5133159;27;19927;-75
2022/08/26 02:21:28;;;;;;;30.63;19.23;;;20.80;99.90;;;;;;5112082;27;20893;-75
2022/08/26 02:23:55;;;;;;;24.92;18.25;;;20.80;99.90;;;;;;5132649;27;20115;-74
2022/08/26 02:26:23;;;;;;;28.27;17.95;;;20.80;99.90;;;;;;5131248;27;20051;-75
2022/08/26 02:28:55;;;;;;;30.95;19.50;;;20.90;99.90;;;;;;5132963;27;20039;-75
2022/08/26 02:31:21;;;;;;;24.92;17.52;;;19.50;99.90;;;;;;5132225;27;20039;-74
2022/08/26 02:33:47;;;;;;;29.92;18.17;;;20.90;99.90;;;;;;5136270;27;20775;-75
2022/08/26 02:36:23;;;;;;;30.95;20.45;;;20.90;99.90;;;;;;5134667;27;20818;-74
2022/08/26 02:38:50;;;;;;;34.83;21.85;;;20.90;99.90;;;;;;5135170;27;20050;-76
2022/08/26 02:41:16;;;;;;;28.77;19.67;;;20.80;99.90;;;;;;5132765;27;20099;-75
2022/08/26 02:43:42;;;;;;;32.83;19.38;;;20.80;99.90;;;;;;5136028;27;20083;-74
2022/08/26 02:46:08;;;;;;;33.70;22.10;;;20.90;99.90;;;;;;5115616;27;20078;-75
2022/08/26 02:48:34;;;;;;;35.47;21.55;;;20.90;99.90;;;;;;5135469;27;20110;-75
2022/08/26 02:51:00;;;;;;;36.45;21.35;;;20.80;99.90;;;;;;5134598;27;20045;-75
2022/08/26 02:53:26;;;;;;;27.30;19.15;;;20.80;99.90;;;;;;5133851;27;20183;-75
2022/08/26 02:55:52;;;;;;;29.75;20.02;;;20.80;99.90;;;;;;5133805;27;20517;-75
2022/08/26 02:58:19;;;;;;;32.20;19.35;;;20.80;99.90;;;;;;5134030;27;20046;-75
2022/08/26 03:00:48;;;;;;;27.38;19.42;;;20.80;99.90;;;;;;5134056;27;20506;-75
2022/08/26 03:03:14;;;;;;;29.83;21.17;;;20.80;99.90;;;;;;5136318;27;20039;-75
2022/08/26 03:05:41;;;;;;;26.38;18.00;;;20.80;99.90;;;;;;5136575;27;20050;-74
2022/08/26 03:08:10;;;;;;;28.48;19.52;;;20.90;99.90;;;;;;5135190;27;20054;-75
2022/08/26 03:10:37;;;;;;;29.98;19.50;;;20.90;99.90;;;;;;5114852;27;20453;-74
2022/08/26 03:13:02;;;;;;;28.58;19.45;;;20.90;99.90;;;;;;5134244;27;20066;-74
2022/08/26 03:15:28;;;;;;;31.42;20.02;;;20.90;99.90;;;;;;5132756;27;20103;-75
2022/08/26 03:17:54;;;;;;;32.45;20.23;;;20.90;99.90;;;;;;5135791;27;20840;-74
2022/08/26 03:20:20;;;;;;;29.75;21.40;;;20.90;99.90;;;;;;5133210;27;20047;-74
2022/08/26 03:22:46;;;;;;;30.67;20.08;;;20.90;99.90;;;;;;5136546;27;20046;-74
2022/08/26 03:25:14;;;;;;;35.72;21.40;;;20.90;99.90;;;;;;5137453;27;20105;-75
2022/08/26 03:27:40;;;;;;;26.02;18.63;;;20.90;99.90;;;;;;5135213;27;20172;-74
2022/08/26 03:32:51;;;;;;;23.85;17.25;;;20.90;99.90;;;;;;5137811;27;20050;-75
2022/08/26 03:35:17;;;;;;;28.73;18.52;;;20.90;99.90;;;;;;5137581;27;20038;-75
2022/08/26 03:37:43;;;;;;;27.88;18.75;;;20.90;99.90;;;;;;5091545;27;20947;-75
2022/08/26 03:40:10;;;;;;;25.60;17.45;;;20.90;99.90;;;;;;5136947;27;20517;-74
2022/08/26 03:42:38;;;;;;;26.40;17.88;;;21.00;99.90;;;;;;5138285;27;20065;-75
2022/08/26 03:45:06;;;;;;;29.70;17.10;;;21.00;99.90;;;;;;5135552;27;20054;-75
2022/08/26 03:47:32;;;;;;;24.27;17.48;;;21.00;99.90;;;;;;5136554;27;20115;-74
2022/08/26 03:49:58;;;;;;;27.10;17.50;;;21.00;99.90;;;;;;5135476;27;20051;-74
2022/08/26 03:52:24;;;;;;;28.90;16.60;;;21.00;99.90;;;;;;5137372;27;20099;-74
2022/08/26 03:54:49;;;;;;;26.83;16.42;;;21.00;99.90;;;;;;5134489;27;20058;-75
2022/08/26 03:57:15;;;;;;;27.50;15.73;;;21.00;99.90;;;;;;5118832;27;20089;-75
2022/08/26 03:59:41;;;;;;;25.35;16.08;;;21.00;99.90;;;;;;5135746;27;20060;-74
2022/08/26 04:02:07;;;;;;;22.45;16.42;;;21.00;99.90;;;;;;5135818;27;20039;-75
2022/08/26 04:04:34;;;;;;;30.35;14.68;;;21.00;99.90;;;;;;5135412;27;20035;-75
2022/08/26 04:07:00;;;;;;;24.25;13.93;;;21.00;99.90;;;;;;5134188;27;20145;-75
2022/08/26 04:09:26;;;;;;;25.17;13.98;;;21.00;99.90;;;;;;5132741;27;20053;-75
2022/08/26 04:11:53;;;;;;;25.90;15.27;;;21.00;99.90;;;;;;5136346;27;20049;-75
2022/08/26 04:14:22;;;;;;;20.23;14.40;;;21.00;99.90;;;;;;5137038;27;20041;-75
2022/08/26 04:16:49;;;;;;;27.52;14.80;;;21.00;99.90;;;;;;5136638;27;20054;-75
2022/08/26 04:19:16;;;;;;;26.85;15.18;;;21.00;99.90;;;;;;5136497;27;20046;-75
2022/08/26 04:21:43;;;;;;;21.42;15.57;;;21.00;99.90;;;;;;5137011;27;20074;-75
2022/08/26 04:24:11;;;;;;;21.10;13.80;;;20.90;99.90;;;;;;5136376;27;20875;-75
2022/08/26 04:26:37;;;;;;;21.70;13.77;;;21.00;99.90;;;;;;5134860;27;20047;-75
2022/08/26 04:29:06;;;;;;;21.20;13.55;;;21.00;99.90;;;;;;5136296;27;20415;-75
2022/08/26 04:31:34;;;;;;;23.00;13.20;;;21.00;99.90;;;;;;5137259;27;20054;-75
2022/08/26 04:34:00;;;;;;;23.23;13.65;;;20.90;99.90;;;;;;5135142;27;20039;-75
2022/08/26 04:36:26;;;;;;;21.70;13.15;;;21.00;99.90;;;;;;5137080;27;20043;-75
2022/08/26 04:38:52;;;;;;;22.65;13.95;;;21.00;99.90;;;;;;5137520;27;20159;-74
2022/08/26 04:41:18;;;;;;;23.95;14.55;;;20.90;99.90;;;;;;5099411;27;20390;-75
2022/08/26 04:43:45;;;;;;;19.95;11.63;;;21.00;99.90;;;;;;5118665;27;20077;-75
2022/08/26 04:46:14;;;;;;;18.15;12.60;;;20.90;99.90;;;;;;5133609;27;20056;-75
2022/08/26 04:48:40;;;;;;;18.48;12.57;;;21.00;99.90;;;;;;5136243;27;20044;-75
2022/08/26 04:51:08;;;;;;;19.85;14.45;;;20.90;99.90;;;;;;5136015;27;20526;-75
2022/08/26 04:53:33;;;;;;;18.38;12.98;;;20.90;99.90;;;;;;5138873;27;20134;-75
2022/08/26 04:55:59;;;;;;;19.33;12.52;;;20.90;99.90;;;;;;5117161;27;20733;-75
2022/08/26 04:58:25;;;;;;;20.88;12.73;;;20.90;99.90;;;;;;5138273;27;20118;-75
2022/08/26 05:00:52;;;;;;;23.25;14.63;;;20.90;99.90;;;;;;5134622;27;20117;-75
2022/08/26 05:03:19;;;;;;;25.52;13.20;;;20.90;99.90;;;;;;5130880;27;21639;-79
2022/08/26 05:05:48;;;;;;;19.40;12.30;;;20.90;99.90;;;;;;5132046;27;20063;-80
2022/08/26 05:08:16;;;;;;;24.88;15.40;;;20.90;99.90;;;;;;5126078;27;20208;-80
2022/08/26 05:10:47;;;;;;;25.98;14.75;;;20.80;99.90;;;;;;5125579;27;20030;-79
2022/08/26 05:13:14;;;;;;;26.55;15.20;;;20.80;99.90;;;;;;5126676;27;20506;-79
2022/08/26 05:15:40;;;;;;;24.02;13.57;;;20.80;99.90;;;;;;5125636;27;20049;-78
2022/08/26 05:18:06;;;;;;;20.30;12.70;;;20.80;99.90;;;;;;5128870;27;20047;-79
2022/08/26 05:20:38;;;;;;;20.13;13.77;;;20.80;99.90;;;;;;5126664;27;20030;-80
2022/08/26 05:23:03;;;;;;;18.55;12.55;;;20.70;99.90;;;;;;5126178;27;20043;-80
2022/08/26 05:25:29;;;;;;;22.65;13.50;;;20.80;99.90;;;;;;5124690;27;20162;-80
2022/08/26 05:27:56;;;;;;;29.20;16.13;;;20.40;99.90;;;;;;5131581;27;20058;-81
2022/08/26 05:30:22;;;;;;;25.65;16.00;;;20.70;99.90;;;;;;5119571;27;20359;-80
2022/08/26 05:32:49;;;;;;;22.52;13.88;;;20.70;99.90;;;;;;5132319;27;20078;-80
2022/08/26 05:35:15;;;;;;;23.65;13.90;;;20.70;99.90;;;;;;5137299;27;20058;-80
2022/08/26 05:37:41;;;;;;;25.70;14.50;;;20.70;99.90;;;;;;5136394;27;20048;-81
2022/08/26 05:40:07;;;;;;;26.95;15.73;;;20.70;99.90;;;;;;5136756;27;20106;-81
2022/08/26 05:42:33;;;;;;;21.73;12.55;;;20.70;99.90;;;;;;5136991;27;20038;-74
2022/08/26 05:44:59;;;;;;;22.90;12.85;;;20.70;99.90;;;;;;5136727;27;20049;-75
2022/08/26 05:47:25;;;;;;;25.77;13.73;;;20.70;99.90;;;;;;5136063;27;20038;-75
2022/08/26 05:49:51;;;;;;;22.52;13.93;;;20.70;99.90;;;;;;5134307;27;20150;-76
2022/08/26 05:52:17;;;;;;;26.35;13.35;;;20.70;99.90;;;;;;5135319;27;20070;-75
2022/08/26 05:54:43;;;;;;;17.35;11.75;;;20.70;99.90;;;;;;5134657;27;20042;-76
2022/08/26 05:57:10;;;;;;;14.77;11.63;;;20.70;99.90;;;;;;5136986;27;20441;-76
2022/08/26 05:59:37;;;;;;;21.42;13.52;;;20.80;99.90;;;;;;5136676;27;20099;-75
2022/08/26 06:02:04;;;;;;;22.20;12.93;;;20.80;99.90;;;;;;5133530;27;20050;-75
2022/08/26 06:04:30;;;;;;;21.52;12.13;;;20.90;99.90;;;;;;5136314;27;20051;-75
2022/08/26 06:06:57;;;;;;;20.52;12.95;;;20.90;99.90;;;;;;5136171;27;20691;-75
2022/08/26 06:09:23;;;;;;;21.58;14.52;;;20.90;99.90;;;;;;5138439;27;20151;-76
2022/08/26 06:11:50;;;;;;;30.13;13.68;;;20.90;99.90;;;;;;5139644;27;20047;-76
2022/08/26 06:14:16;;;;;;;22.42;13.60;;;20.90;99.90;;;;;;5138271;27;20047;-75
2022/08/26 06:16:43;;;;;;;20.48;11.70;;;21.00;99.90;;;;;;5138776;27;20058;-74
2022/08/26 06:19:11;;;;;;;18.45;10.70;;;21.00;99.90;;;;;;5134579;27;20188;-77
2022/08/26 06:21:39;;;;;;;18.20;12.52;;;21.10;99.90;;;;;;5138580;27;20125;-76
2022/08/26 06:27:03;;;;;;;17.33;11.40;;;21.20;99.90;;;;;;5137806;27;20066;-78
2022/08/26 06:29:34;;;;;;;31.00;11.32;;;21.20;99.90;;;;;;5135666;27;20078;-77
2022/08/26 06:32:01;;;;;;;18.40;12.23;;;21.30;99.90;;;;;;5136767;27;20047;-78
2022/08/26 06:34:27;;;;;;;14.57;10.50;;;21.30;99.90;;;;;;5135878;27;20512;-76
2022/08/26 06:36:54;;;;;;;18.30;11.07;;;21.40;99.90;;;;;;5138757;27;20153;-76
2022/08/26 06:39:20;;;;;;;15.02;9.82;;;21.40;99.90;;;;;;5140901;27;20039;-76
2022/08/26 06:41:46;;;;;;;15.48;10.43;;;21.50;99.90;;;;;;5130380;27;20086;-75
2022/08/26 06:44:13;;;;;;;17.55;9.93;;;21.50;99.90;;;;;;5102219;27;20123;-74
2022/08/26 06:46:40;;;;;;;17.58;11.20;;;21.60;99.90;;;;;;5108671;27;20207;-74
2022/08/26 06:49:06;;;;;;;21.55;11.00;;;21.70;99.90;;;;;;5137172;27;20083;-74
2022/08/26 06:51:35;;;;;;;18.85;10.43;;;21.70;99.90;;;;;;5137813;27;20054;-74
2022/08/26 06:54:02;;;;;;;14.52;10.45;;;21.60;99.90;;;;;;5134033;27;20277;-74
2022/08/26 06:56:37;;;;;;;15.88;8.20;;;21.60;99.90;;;;;;5136617;27;20079;-75
2022/08/26 06:59:03;;;;;;;14.65;9.18;;;21.70;99.90;;;;;;5116803;27;20119;-76
2022/08/26 07:01:32;;;;;;;13.93;9.35;;;21.70;99.90;;;;;;5133450;27;20117;-75
2022/08/26 07:04:01;;;;;;;17.75;8.52;;;21.70;99.90;;;;;;5132364;27;20048;-74
2022/08/26 07:06:27;;;;;;;17.70;9.75;;;21.80;99.90;;;;;;5128190;27;20047;-74
2022/08/26 07:09:00;;;;;;;18.48;9.02;;;21.80;99.90;;;;;;5129024;27;20099;-74
2022/08/26 07:11:26;;;;;;;;;;;21.80;99.90;;;;;;5133602;27;20046;-74
2022/08/26 07:13:52;;;;;;;17.20;8.90;;;21.80;99.90;;;;;;5106344;27;19923;-76
2022/08/26 07:16:18;;;;;;;15.57;9.32;;;21.80;99.90;;;;;;5109026;27;20054;-76
2022/08/26 07:18:45;;;;;;;13.98;7.95;;;21.90;99.90;;;;;;5130196;27;20798;-76
2022/08/26 07:21:14;;;;;;;12.68;8.02;;;21.90;99.90;;;;;;5140062;27;20043;-76
2022/08/26 07:23:40;;;;;;;18.60;7.63;;;22.00;99.90;;;;;;5126837;27;20181;-77
2022/08/26 07:26:17;;;;;;;15.32;7.65;;;22.00;99.90;;;;;;5126306;27;20687;-77
2022/08/26 07:28:45;;;;;;;18.77;8.13;;;22.10;99.90;;;;;;5136651;27;20379;-79
2022/08/26 07:31:12;;;;;;;14.65;7.88;;;22.10;99.90;;;;;;5124935;27;20043;-77
2022/08/26 07:33:39;;;;;;;12.90;7.53;;;22.10;99.90;;;;;;5132585;27;20498;-78
2022/08/26 07:36:06;;;;;;;13.55;7.45;;;22.20;99.90;;;;;;5133348;27;20640;-84
2022/08/26 07:38:33;;;;;;;13.75;7.88;;;22.10;99.90;;;;;;5137741;27;20046;-83
2022/08/26 07:41:00;;;;;;;12.73;7.80;;;22.10;99.90;;;;;;5136604;27;20053;-81
2022/08/26 07:43:27;;;;;;;17.73;7.68;;;22.10;99.90;;;;;;5135191;27;20043;-83
2022/08/26 07:45:53;;;;;;;12.40;8.40;;;22.00;99.90;;;;;;5119773;27;20049;-82
2022/08/26 07:48:19;;;;;;;12.68;8.38;;;21.90;99.90;;;;;;5116472;27;20042;-83
2022/08/26 07:50:45;;;;;;;15.73;8.00;;;22.00;99.90;;;;;;5132673;27;20070;-83
2022/08/26 07:53:11;;;;;;;15.63;6.90;;;22.00;99.90;;;;;;5130428;27;20043;-82
2022/08/26 07:55:37;;;;;;;14.77;8.00;;;22.00;99.90;;;;;;5127839;27;20085;-82
2022/08/26 07:58:04;;;;;;;9.45;6.70;;;21.90;99.90;;;;;;5136189;27;20618;-81
2022/08/26 08:00:31;;;;;;;11.38;7.28;;;21.90;99.90;;;;;;5131058;27;20123;-82
2022/08/26 08:03:02;;;;;;;14.50;7.38;;;21.90;99.90;;;;;;5127959;27;20046;-82
2022/08/26 08:05:31;;;;;;;10.18;6.63;;;21.90;99.90;;;;;;5138274;27;20046;-82
2022/08/26 08:07:57;;;;;;;11.10;6.40;;;21.90;99.90;;;;;;5117468;27;20066;-82
2022/08/26 08:10:25;;;;;;;11.45;5.72;;;21.90;99.90;;;;;;5114420;27;20038;-82
2022/08/26 08:12:51;;;;;;;15.95;6.38;;;22.10;99.90;;;;;;5135638;27;20046;-82
2022/08/26 08:15:20;;;;;;;12.18;5.38;;;22.20;99.90;;;;;;5135818;27;20090;-82
2022/08/26 08:17:46;;;;;;;11.55;5.95;;;22.30;99.90;;;;;;5118568;27;20047;-82
2022/08/26 08:20:13;;;;;;;9.07;5.57;;;22.30;99.90;;;;;;5105979;27;20046;-83
2022/08/26 08:22:39;;;;;;;10.38;5.95;;;22.20;99.90;;;;;;5137840;27;20043;-83
2022/08/26 08:25:06;;;;;;;10.40;5.47;;;22.20;99.90;;;;;;5116050;27;20134;-82
2022/08/26 08:27:36;;;;;;;13.50;6.13;;;22.30;99.90;;;;;;5127366;27;20050;-83
2022/08/26 08:30:03;;;;;;;9.75;5.30;;;22.50;99.90;;;;;;5137534;27;20562;-84
2022/08/26 08:32:28;;;;;;;6.78;5.13;;;22.50;99.90;;;;;;5119075;27;20122;-83
2022/08/26 08:34:55;;;;;;;13.80;5.40;;;22.50;99.90;;;;;;5136003;27;20045;-83
2022/08/26 08:37:22;;;;;;;11.07;5.50;;;22.30;99.90;;;;;;5137035;27;20051;-83
2022/08/26 08:39:48;;;;;;;8.52;4.82;;;21.90;99.90;;;;;;5120402;27;20050;-82
2022/08/26 08:42:28;;;;;;;10.23;4.93;;;22.30;99.90;;;;;;5118085;27;20043;-83
2022/08/26 08:45:02;;;;;;;8.38;4.35;;;20.80;99.90;;;;;;5107795;28;20054;-82
2022/08/26 08:47:33;;;;;;;9.55;3.78;;;22.50;99.90;;;;;;5117249;27;20114;-81
2022/08/26 08:50:10;;;;;;;5.43;3.78;;;22.50;99.90;;;;;;5136824;27;20050;-84
2022/08/26 08:52:37;;;;;;;4.90;2.72;;;22.50;99.90;;;;;;5133979;27;20303;-84
2022/08/26 08:55:05;;;;;;;6.50;2.78;;;22.50;99.90;;;;;;5135835;27;20054;-84
2022/08/26 08:57:59;;;;;;;5.93;4.10;;;22.40;99.90;;;;;;5127568;27;20043;-82
2022/08/26 09:00:28;;;;;;;6.43;3.47;;;22.40;99.90;;;;;;5124008;27;20526;-81
2022/08/26 09:03:05;;;;;;;7.15;2.70;;;22.30;99.90;;;;;;5136384;27;20050;-84
2022/08/26 09:05:40;;;;;;;10.88;3.42;;;22.40;99.90;;;;;;5138680;27;20150;-83
2022/08/26 09:08:10;;;;;;;10.13;3.15;;;22.40;99.90;;;;;;5127827;27;20050;-84
2022/08/26 09:10:48;;;;;;;6.88;3.03;;;22.40;99.90;;;;;;5142338;27;20054;-82
2022/08/26 09:13:16;;;;;;;6.57;3.75;;;22.50;99.90;;;;;;5138309;27;20138;-83
2022/08/26 09:15:47;;;;;;;4.30;2.33;;;22.30;99.90;;;;;;5121287;27;20054;-82
2022/08/26 09:18:36;;;;;;;7.07;2.50;;;22.30;99.90;;;;;;5138734;27;20498;-82
2022/08/26 09:21:05;;;;;;;4.68;2.47;;;22.20;99.90;;;;;;5129572;27;20078;-82
2022/08/26 09:23:33;;;;;;;7.72;2.83;;;22.30;99.90;;;;;;5122382;27;20053;-83
2022/08/26 09:26:13;;;;;;;4.00;2.72;;;22.30;99.90;;;;;;5131719;27;20566;-83
2022/08/26 09:28:41;;;;;;;3.83;2.40;;;22.30;99.90;;;;;;5100243;27;20043;-83
2022/08/26 09:31:12;;;;;;;6.07;2.45;;;22.20;99.90;;;;;;5102951;27;20054;-81
2022/08/26 09:33:40;;;;;;;8.70;3.35;;;22.20;99.90;;;;;;5134065;27;20184;-81
2022/08/26 09:36:21;;;;;;;6.55;2.47;;;22.20;99.90;;;;;;5120994;27;20074;-82
2022/08/26 09:38:52;;;;;;;5.43;2.40;;;22.10;99.90;;;;;;5131507;27;20947;-82
2022/08/26 09:41:30;;;;;;;5.80;2.47;;;22.10;99.90;;;;;;5118539;27;20051;-82
2022/08/26 09:44:16;;;;;;;5.50;2.20;;;22.20;99.90;;;;;;5133341;27;20039;-83
2022/08/26 09:47:06;;;;;;;3.72;2.83;;;22.10;99.90;;;;;;5128821;27;20034;-82
2022/08/26 09:49:37;;;;;;;4.03;2.45;;;22.20;99.90;;;;;;5126919;27;20077;-83
2022/08/26 09:52:14;;;;;;;4.57;2.38;;;22.00;99.90;;;;;;5139496;27;20063;-81
2022/08/26 09:54:43;;;;;;;10.18;3.17;;;22.10;99.90;;;;;;5130403;27;20051;-82
2022/08/26 09:57:15;;;;;;;3.85;2.47;;;22.10;99.90;;;;;;5127660;27;20054;-81
2022/08/26 09:59:42;;;;;;;4.68;3.13;;;22.20;99.90;;;;;;5140012;27;20038;-83
2022/08/26 10:02:32;;;;;;;8.27;2.58;;;22.30;99.90;;;;;;5140758;27;20839;-82
2022/08/26 10:05:02;;;;;;;5.40;2.67;;;22.10;99.90;;;;;;5138009;27;20122;-83
2022/08/26 10:07:48;;;;;;;5.03;2.67;;;22.10;99.90;;;;;;5141333;27;20453;-83
2022/08/26 10:10:43;;;;;;;5.97;2.15;;;22.10;99.90;;;;;;5119062;27;20046;-82
2022/08/26 10:13:16;;;;;;;7.88;2.50;;;22.10;99.90;;;;;;5117422;27;20082;-83
2022/08/26 10:16:00;;;;;;;10.38;3.83;;;22.60;99.90;;;;;;5130885;27;20847;-84
2022/08/26 10:18:42;;;;;;;8.48;3.75;;;22.00;99.90;;;;;;5131616;27;20047;-84
2022/08/26 10:21:19;;;;;;;5.40;2.65;;;21.90;99.90;;;;;;5123619;27;20042;-83
2022/08/26 10:23:48;;;;;;;7.40;2.45;;;22.00;99.90;;;;;;5115639;27;20039;-82
2022/08/26 10:26:43;;;;;;;10.20;2.92;;;22.10;99.90;;;;;;5105017;27;20054;-82
2022/08/26 10:29:21;;;;;;;7.07;2.83;;;22.20;99.90;;;;;;5098273;27;20046;-82
2022/08/26 10:31:57;;;;;;;6.05;2.45;;;22.10;99.90;;;;;;5127038;27;20041;-82
2022/08/26 10:34:23;;;;;;;5.20;3.08;;;22.20;99.90;;;;;;5104132;27;20053;-83
2022/08/26 10:37:07;;;;;;;5.32;2.65;;;22.30;99.90;;;;;;5127245;27;20039;-82
2022/08/26 10:39:44;;;;;;;6.22;2.30;;;22.30;99.90;;;;;;5110086;27;20042;-83
2022/08/26 10:42:19;;;;;;;5.32;3.08;;;22.30;99.90;;;;;;5133080;27;20042;-83
2022/08/26 10:44:48;;;;;;;9.75;2.42;;;22.20;99.90;;;;;;5129106;27;20042;-84
2022/08/26 10:47:23;;;;;;;7.50;2.83;;;22.10;99.90;;;;;;5117293;27;20432;-83
2022/08/26 10:49:51;;;;;;;12.23;2.95;;;22.00;99.90;;;;;;5126859;27;20110;-84
2022/08/26 10:52:33;;;;;;;7.70;2.53;;;22.10;99.90;;;;;;5112233;27;20045;-83
2022/08/26 10:55:04;;;;;;;8.18;2.92;;;22.20;99.90;;;;;;5120936;27;20866;-83
2022/08/26 10:57:45;;;;;;;8.95;2.67;;;22.10;99.90;;;;;;5129520;27;20115;-82
2022/08/26 11:03:28;;;;;;;8.73;2.42;;;22.20;99.90;;;;;;5132760;27;20050;-82
2022/08/26 11:06:20;;;;;;;4.82;2.38;;;22.20;99.90;;;;;;5132581;27;20053;-83
2022/08/26 11:08:47;;;;;;;3.53;2.00;;;22.30;99.90;;;;;;5131813;27;20141;-82
2022/08/26 11:11:35;;;;;;;6.70;3.03;;;22.50;99.90;;;;;;5129929;27;20031;-82
2022/08/26 11:14:19;;;;;;;4.70;2.90;;;22.50;99.90;;;;;;5114969;27;20054;-82
2022/08/26 11:16:53;;;;;;;8.48;2.90;;;22.50;99.90;;;;;;5132060;27;20053;-83
2022/08/26 11:19:38;;;;;;;4.47;2.50;;;22.60;99.90;;;;;;5116569;27;20042;-83
2022/08/26 11:22:05;;;;;;;5.45;2.40;;;22.70;99.90;;;;;;5126545;27;20050;-84
2022/08/26 11:24:43;;;;;;;6.53;2.55;;;22.80;99.90;;;;;;5129932;27;20255;-84
2022/08/26 11:27:52;;;;;;;2.72;2.00;;;22.80;99.90;;;;;;5112358;27;20061;-83
2022/08/26 11:30:18;;;;;;;6.47;2.58;;;23.00;99.90;;;;;;5126258;27;20073;-84
2022/08/26 11:32:56;;;;;;;5.82;2.45;;;23.10;99.90;;;;;;5132579;27;20510;-83
2022/08/26 11:35:23;;;;;;;6.38;2.22;;;22.90;99.90;;;;;;5130649;27;20086;-83
2022/08/26 11:38:17;;;;;;;4.47;2.38;;;22.70;99.90;;;;;;5123567;27;20133;-83
2022/08/26 11:40:43;;;;;;;;;;;22.40;99.90;;;;;;5117635;27;20047;-82
2022/08/26 11:43:21;;;;;;;6.13;3.25;;;22.20;99.90;;;;;;5106533;27;20136;-83
2022/08/26 11:46:07;;;;;;;9.48;2.88;;;22.20;99.90;;;;;;5131671;27;20031;-83
2022/08/26 11:48:36;;;;;;;7.93;3.30;;;22.10;99.90;;;;;;5126527;27;20042;-82
2022/08/26 11:51:01;;;;;;;3.53;2.55;;;22.10;99.90;;;;;;5108747;27;20082;-83
2022/08/26 11:53:29;;;;;;;9.98;2.63;;;22.10;99.90;;;;;;5129209;27;20146;-83
2022/08/26 11:55:57;;;;;;;6.78;2.83;;;22.10;99.90;;;;;;5127110;27;20046;-82
2022/08/26 11:58:26;;;;;;;4.70;2.47;;;22.00;99.90;;;;;;5121666;27;20047;-83
2022/08/26 12:01:00;;;;;;;9.50;2.63;;;21.90;99.90;;;;;;5129380;27;20850;-82
2022/08/26 12:03:44;;;;;;;5.95;2.70;;;22.00;99.90;;;;;;5121622;27;20648;-83
2022/08/26 12:06:27;;;;;;;7.32;2.60;;;21.90;99.90;;;;;;5125794;27;20047;-83
2022/08/26 12:08:58;;;;;;;5.38;2.17;;;22.00;99.90;;;;;;5129709;27;20049;-83
2022/08/26 12:11:30;;;;;;;7.18;2.85;;;22.30;99.90;;;;;;5134950;27;20137;-82
2022/08/26 12:13:57;;;;;;;7.35;2.65;;;22.40;99.90;;;;;;5124090;27;20925;-85
2022/08/26 12:16:26;;;;;;;5.65;2.13;;;22.60;99.90;;;;;;5132203;27;20074;-82
2022/08/26 12:18:52;;;;;;;10.13;2.17;;;22.60;99.90;;;;;;5109544;27;20473;-83
2022/08/26 12:21:25;;;;;;;8.10;2.70;;;22.70;99.90;;;;;;5129710;27;20482;-83
2022/08/26 12:23:53;;;;;;;5.45;2.42;;;22.90;99.90;;;;;;5122782;27;20038;-83
2022/08/26 12:26:26;;;;;;;4.72;2.35;;;23.00;99.90;;;;;;5112358;27;20107;-83
2022/08/26 12:28:57;;;;;;;4.22;1.85;;;24.20;99.90;;;;;;5130113;27;20133;-82
2022/08/26 12:31:38;;;;;;;6.22;2.00;;;22.90;99.90;;;;;;5130075;27;20053;-83
2022/08/26 12:34:08;;;;;;;5.57;2.35;;;22.70;99.90;;;;;;5097779;27;20051;-84
2022/08/26 12:36:38;;;;;;;5.57;2.47;;;22.60;99.90;;;;;;5125440;27;20042;-84
2022/08/26 12:39:09;;;;;;;3.70;2.28;;;22.50;99.90;;;;;;5128680;27;20039;-84
2022/08/26 12:41:43;;;;;;;5.47;2.10;;;22.50;99.90;;;;;;5132846;27;20044;-84
2022/08/26 12:44:31;;;;;;;5.55;2.28;;;22.30;99.90;;;;;;5124376;27;20158;-83
2022/08/26 12:47:07;;;;;;;4.00;1.80;;;22.20;99.90;;;;;;5106101;27;20039;-84
2022/08/26 12:49:35;;;;;;;5.55;1.90;;;22.20;99.90;;;;;;5122668;27;20042;-84
2022/08/26 12:52:02;;;;;;;3.17;1.98;;;22.00;99.90;;;;;;5117992;27;20128;-84
2022/08/26 12:54:57;;;;;;;4.68;1.80;;;21.90;99.90;;;;;;5123692;27;20031;-83
2022/08/26 12:57:13;;;;;;;5.53;1.83;;;21.80;99.90;;;;;;5124757;27;20055;-82